createdAt,value
2018-10-05T00:00:05.713Z,22.3
2018-10-05T00:10:08.651Z,22.3
2018-10-05T05:58:01.504Z,24.2
2018-10-05T06:07:55.788Z,23
2018-10-05T06:17:58.580Z,22.5
2018-10-05T06:21:33.266Z,22.3
2018-10-05T06:31:35.153Z,22.3
2018-10-05T06:35:34.716Z,22.2
2018-10-05T06:45:36.368Z,22.3
2018-10-05T06:55:39.583Z,23
2018-10-05T07:00:24.818Z,23.1
2018-10-05T07:10:27.080Z,23.4
2018-10-05T07:20:30.201Z,23.5
2018-10-05T07:30:33.296Z,23.7
2018-10-05T07:40:36.379Z,23.8
2018-10-05T07:50:39.853Z,23.9
2018-10-05T08:00:42.536Z,24
2018-10-05T08:10:45.576Z,24
2018-10-05T08:20:48.424Z,24
2018-10-05T08:30:50.743Z,24.1
2018-10-05T08:40:53.939Z,24.1
2018-10-05T08:50:56.671Z,24
2018-10-05T09:00:58.956Z,23.9
2018-10-05T09:11:01.844Z,23.9
2018-10-05T09:21:05.029Z,23.9
2018-10-05T09:31:07.821Z,23.8
2018-10-05T09:41:11.407Z,23.8
2018-10-05T09:51:14.456Z,23.8
2018-10-05T10:01:17.522Z,23.7
2018-10-05T10:11:20.629Z,23.7
2018-10-05T10:21:23.349Z,23.9
2018-10-05T10:31:26.335Z,24
2018-10-05T10:41:29.412Z,24
2018-10-05T10:51:31.980Z,24
2018-10-05T11:01:38.286Z,24
2018-10-05T11:11:41.515Z,24.1
2018-10-05T11:21:44.736Z,24.3
2018-10-05T11:31:48.042Z,24.4
2018-10-05T11:41:51.521Z,24.5
2018-10-05T11:51:54.520Z,24.5
2018-10-05T12:01:57.946Z,24.6
2018-10-05T12:12:01.448Z,24.7
2018-10-05T12:41:58.900Z,24.6
2018-10-05T12:48:03.996Z,24.7
2018-10-05T12:58:05.912Z,24.6
2018-10-05T13:08:09.045Z,24.6
2018-10-05T13:18:12.246Z,24.6
2018-10-05T13:28:15.427Z,24.7
2018-10-05T13:38:18.031Z,24.8
2018-10-05T13:48:21.411Z,24.8
